Time;durP1;ratioP1;P1;durP2;ratioP2;P2;SDS_P1;SDS_P2;PMS_P1;PMS_P2;Temp;Humidity;BMP_temperature;BMP_pressure;BME280_temperature;BME280_humidity;BME280_pressure;Samples;Min_cycle;Max_cycle;Signal;HPM_P1;HPM_P2
2024/02/04 00:01:23;;;;;;;18.90;10.10;;;;;;;;;;5017606;28;20017;-84
2024/02/04 00:03:49;;;;;;;17.52;9.77;;;;;;;;;;5013316;28;20027;-84
2024/02/04 00:06:15;;;;;;;16.98;9.15;;;;;;;;;;4997314;28;20050;-84
2024/02/04 00:08:53;;;;;;;14.88;8.60;;;;;;;;;;4996899;28;20073;-84
2024/02/04 00:11:23;;;;;;;14.05;6.97;;;;;;;;;;5015889;28;20034;-85
2024/02/04 00:13:49;;;;;;;14.15;6.53;;;;;;;;;;5012333;28;20057;-84
2024/02/04 00:16:15;;;;;;;14.40;6.05;;;;;;;;;;5017708;28;20060;-84
2024/02/04 00:18:41;;;;;;;14.27;6.32;;;;;;;;;;5016985;28;20476;-82
2024/02/04 00:21:09;;;;;;;19.52;6.28;;;;;;;;;;4998921;28;20037;-84
2024/02/04 00:23:36;;;;;;;13.07;6.18;;;;;;;;;;4996789;28;20037;-84
2024/02/04 00:26:04;;;;;;;13.13;5.68;;;;;;;;;;5020745;28;20499;-83
2024/02/04 00:28:30;;;;;;;14.52;6.03;;;;;;;;;;5015062;28;20062;-82
2024/02/04 00:30:57;;;;;;;12.13;5.45;;;;;;;;;;4998821;28;20030;-82
2024/02/04 00:33:23;;;;;;;14.75;6.00;;;;;;;;;;5024447;28;20044;-82
2024/02/04 00:35:51;;;;;;;14.77;5.68;;;;;;;;;;4995217;28;20025;-83
2024/02/04 00:38:18;;;;;;;14.57;5.18;;;;;;;;;;4998979;28;20160;-81
2024/02/04 00:40:44;;;;;;;12.70;4.80;;;;;;;;;;5012431;28;20026;-83
2024/02/04 00:43:12;;;;;;;;;;;;;;;;;;5016846;28;20033;-83
2024/02/04 00:45:39;;;;;;;16.38;5.70;;;;;;;;;;4994898;28;20159;-84
2024/02/04 00:48:05;;;;;;;11.85;4.63;;;;;;;;;;5009754;28;20030;-84
2024/02/04 00:50:33;;;;;;;12.50;5.85;;;;;;;;;;5014991;28;20033;-84
2024/02/04 00:53:01;;;;;;;14.52;6.20;;;;;;;;;;5014686;28;20740;-83
2024/02/04 00:55:30;;;;;;;13.05;5.30;;;;;;;;;;5014123;28;20041;-85
2024/02/04 00:58:00;;;;;;;12.60;4.70;;;;;;;;;;5015877;28;20034;-85
2024/02/04 01:00:26;;;;;;;13.52;5.13;;;;;;;;;;4999393;28;20052;-84
2024/02/04 01:02:54;;;;;;;13.50;5.80;;;;;;;;;;5014822;28;20022;-83
2024/02/04 01:05:22;;;;;;;14.77;6.20;;;;;;;;;;4997327;28;20041;-83
2024/02/04 01:07:48;;;;;;;13.25;5.70;;;;;;;;;;4993928;28;20033;-82
2024/02/04 01:10:14;;;;;;;11.15;4.55;;;;;;;;;;5012527;28;20527;-83
2024/02/04 01:12:41;;;;;;;13.63;5.43;;;;;;;;;;5014817;28;20037;-82
2024/02/04 01:15:09;;;;;;;14.90;4.93;;;;;;;;;;5011736;28;20094;-83
2024/02/04 01:17:36;;;;;;;13.95;4.60;;;;;;;;;;5011631;28;20225;-81
2024/02/04 01:20:06;;;;;;;12.05;4.68;;;;;;;;;;4979416;28;20032;-83
2024/02/04 01:22:33;;;;;;;13.05;5.22;;;;;;;;;;4995472;28;20025;-85
2024/02/04 01:25:01;;;;;;;11.70;5.47;;;;;;;;;;4993869;28;20476;-83
2024/02/04 01:27:27;;;;;;;12.13;5.07;;;;;;;;;;4981994;28;20048;-83
2024/02/04 01:29:53;;;;;;;11.77;4.88;;;;;;;;;;4976682;28;20026;-83
2024/02/04 01:32:19;;;;;;;11.20;4.57;;;;;;;;;;4979399;28;20125;-83
2024/02/04 01:34:45;;;;;;;13.02;4.45;;;;;;;;;;4979134;28;20042;-83
2024/02/04 01:37:14;;;;;;;13.35;4.45;;;;;;;;;;5001304;28;20033;-83
2024/02/04 01:39:40;;;;;;;13.32;4.65;;;;;;;;;;4992462;28;20026;-83
2024/02/04 01:42:07;;;;;;;10.18;4.07;;;;;;;;;;4996953;28;20029;-83
2024/02/04 01:44:34;;;;;;;11.50;4.38;;;;;;;;;;4991533;28;20116;-83
2024/02/04 01:47:00;;;;;;;11.93;4.00;;;;;;;;;;4996584;28;20038;-83
2024/02/04 01:49:26;;;;;;;13.50;3.95;;;;;;;;;;4993436;28;20076;-84
2024/02/04 01:51:54;;;;;;;11.00;4.10;;;;;;;;;;4994868;28;20160;-83
2024/02/04 01:54:22;;;;;;;10.55;4.53;;;;;;;;;;4980704;28;21411;-83
2024/02/04 01:56:50;;;;;;;13.40;4.80;;;;;;;;;;4982136;28;20037;-83
2024/02/04 01:59:17;;;;;;;11.20;4.80;;;;;;;;;;4980008;28;20373;-83
2024/02/04 02:01:42;;;;;;;;;;;;;;;;;;4980468;28;20537;-83
2024/02/04 02:04:09;;;;;;;10.80;4.40;;;;;;;;;;4981692;28;19919;-84
2024/02/04 02:06:41;;;;;;;11.65;4.32;;;;;;;;;;4992487;28;20033;-83
2024/02/04 02:09:12;;;;;;;11.05;4.20;;;;;;;;;;4982317;28;20766;-83
2024/02/04 02:11:41;;;;;;;10.93;4.22;;;;;;;;;;4994206;28;20026;-84
2024/02/04 02:14:14;;;;;;;11.20;4.32;;;;;;;;;;4998094;28;20034;-84
2024/02/04 02:16:42;;;;;;;11.20;4.18;;;;;;;;;;4983958;28;20033;-84
2024/02/04 02:19:20;;;;;;;13.38;4.03;;;;;;;;;;4968916;28;20591;-83
2024/02/04 02:22:09;;;;;;;11.88;4.00;;;;;;;;;;5001286;28;20037;-84
2024/02/04 02:24:36;;;;;;;12.02;4.30;;;;;;;;;;4982534;28;20037;-83
2024/02/04 02:27:05;;;;;;;11.85;3.65;;;;;;;;;;4996414;28;20076;-83
2024/02/04 02:29:32;;;;;;;10.82;3.67;;;;;;;;;;5003737;28;20044;-84
2024/02/04 02:31:59;;;;;;;10.38;3.80;;;;;;;;;;4991464;28;20076;-83
2024/02/04 02:34:25;;;;;;;10.63;3.92;;;;;;;;;;4999593;28;20044;-83
2024/02/04 02:36:56;;;;;;;12.15;3.88;;;;;;;;;;4990123;28;20041;-84
2024/02/04 02:39:25;;;;;;;11.40;4.00;;;;;;;;;;5014587;28;20090;-84
2024/02/04 02:41:56;;;;;;;11.00;3.70;;;;;;;;;;5004815;28;20032;-82
2024/02/04 02:44:24;;;;;;;9.13;3.58;;;;;;;;;;5019040;28;20033;-83
2024/02/04 02:46:50;;;;;;;9.57;3.65;;;;;;;;;;5018656;28;20044;-85
2024/02/04 02:49:18;;;;;;;10.65;3.67;;;;;;;;;;4999197;28;20124;-83
2024/02/04 02:51:45;;;;;;;12.93;4.03;;;;;;;;;;5001510;28;20037;-85
2024/02/04 02:54:11;;;;;;;11.45;3.42;;;;;;;;;;5018718;28;20036;-84
2024/02/04 02:56:39;;;;;;;10.98;3.40;;;;;;;;;;5001672;28;20460;-83
2024/02/04 02:59:05;;;;;;;10.32;3.55;;;;;;;;;;5002468;28;20040;-86
2024/02/04 03:01:31;;;;;;;9.10;3.20;;;;;;;;;;5001609;28;20037;-84
2024/02/04 03:04:02;;;;;;;10.75;3.35;;;;;;;;;;5025219;28;20602;-82
2024/02/04 03:06:29;;;;;;;10.70;3.30;;;;;;;;;;5022231;28;20040;-84
2024/02/04 03:08:57;;;;;;;10.15;3.15;;;;;;;;;;5005424;28;20024;-83
2024/02/04 03:11:24;;;;;;;9.88;3.15;;;;;;;;;;5026144;28;20040;-83
2024/02/04 03:13:50;;;;;;;11.45;3.20;;;;;;;;;;5006146;28;20095;-82
2024/02/04 03:16:18;;;;;;;10.88;3.17;;;;;;;;;;5022234;28;20034;-83
2024/02/04 03:18:44;;;;;;;10.02;3.13;;;;;;;;;;5003799;28;21374;-83
2024/02/04 03:21:18;;;;;;;8.50;3.25;;;;;;;;;;5006780;28;20564;-83
2024/02/04 03:23:46;;;;;;;10.00;3.38;;;;;;;;;;5020000;28;20033;-84
2024/02/04 03:26:20;;;;;;;8.80;3.60;;;;;;;;;;5022767;28;20026;-83
2024/02/04 03:28:46;;;;;;;10.27;3.75;;;;;;;;;;5004467;28;20132;-83
2024/02/04 03:31:12;;;;;;;10.55;3.75;;;;;;;;;;5022252;28;20044;-84
2024/02/04 03:33:39;;;;;;;10.57;3.60;;;;;;;;;;5002770;28;20111;-84
2024/02/04 03:36:07;;;;;;;11.38;3.63;;;;;;;;;;5026635;28;20034;-84
2024/02/04 03:38:34;;;;;;;7.65;3.42;;;;;;;;;;5020708;28;20048;-83
2024/02/04 03:41:00;;;;;;;10.50;3.75;;;;;;;;;;5009629;28;20037;-82
2024/02/04 03:43:28;;;;;;;10.07;3.42;;;;;;;;;;5021670;28;20038;-83
2024/02/04 03:46:00;;;;;;;11.38;3.33;;;;;;;;;;5024801;28;20045;-83
2024/02/04 03:48:27;;;;;;;11.05;3.50;;;;;;;;;;5021197;28;20049;-84
2024/02/04 03:50:54;;;;;;;14.05;3.35;;;;;;;;;;5022582;28;20124;-84
2024/02/04 03:53:24;;;;;;;10.40;3.47;;;;;;;;;;5018341;28;20029;-83
2024/02/04 03:55:55;;;;;;;11.82;3.75;;;;;;;;;;5021087;28;20029;-82
2024/02/04 03:58:29;;;;;;;11.05;3.78;;;;;;;;;;5000677;28;20638;-83
2024/02/04 04:00:56;;;;;;;10.70;3.30;;;;;;;;;;5021365;28;20037;-85
2024/02/04 04:03:23;;;;;;;;;;;;;;;;;;5024189;28;20033;-85
2024/02/04 04:05:50;;;;;;;9.63;3.25;;;;;;;;;;5006099;28;19909;-85
2024/02/04 04:08:17;;;;;;;10.93;3.28;;;;;;;;;;5004398;28;20072;-85
2024/02/04 04:10:45;;;;;;;12.50;3.45;;;;;;;;;;5002454;28;20624;-85
2024/02/04 04:13:13;;;;;;;9.43;3.00;;;;;;;;;;5001680;28;20033;-85
2024/02/04 04:15:42;;;;;;;9.10;3.30;;;;;;;;;;5000069;28;20028;-82
2024/02/04 04:18:12;;;;;;;10.02;3.38;;;;;;;;;;5001734;28;20099;-83
2024/02/04 04:20:38;;;;;;;11.02;3.35;;;;;;;;;;5005800;28;20029;-82
2024/02/04 04:23:06;;;;;;;10.20;3.05;;;;;;;;;;5005049;28;20029;-85
2024/02/04 04:25:33;;;;;;;9.65;3.25;;;;;;;;;;5019720;28;20207;-85
2024/02/04 04:27:59;;;;;;;;;;;;;;;;;;4991880;28;20057;-85
2024/02/04 04:30:26;;;;;;;9.85;3.30;;;;;;;;;;5005862;28;19990;-84
2024/02/04 04:32:53;;;;;;;8.70;3.13;;;;;;;;;;5006741;28;20502;-83
2024/02/04 04:35:20;;;;;;;8.98;2.83;;;;;;;;;;5000452;28;20029;-85
2024/02/04 04:37:49;;;;;;;9.98;3.10;;;;;;;;;;5018670;28;20033;-83
2024/02/04 04:40:15;;;;;;;9.27;3.10;;;;;;;;;;5004568;28;20033;-83
2024/02/04 04:42:42;;;;;;;11.20;3.00;;;;;;;;;;5018895;28;20064;-84
2024/02/04 04:45:11;;;;;;;9.43;2.88;;;;;;;;;;4983606;28;20041;-84
2024/02/04 04:47:39;;;;;;;10.15;3.20;;;;;;;;;;4998478;28;20216;-83
2024/02/04 04:50:07;;;;;;;13.38;3.20;;;;;;;;;;4998552;28;20148;-83
2024/02/04 04:52:34;;;;;;;10.32;3.08;;;;;;;;;;4998172;28;20037;-83
2024/02/04 04:55:00;;;;;;;10.07;3.05;;;;;;;;;;5017292;28;20047;-84
2024/02/04 04:57:26;;;;;;;13.90;3.80;;;;;;;;;;4999831;28;20047;-84
2024/02/04 04:59:52;;;;;;;9.95;3.15;;;;;;;;;;5000497;28;20040;-84
2024/02/04 05:02:18;;;;;;;10.88;3.50;;;;;;;;;;5002192;28;20036;-85
2024/02/04 05:04:45;;;;;;;13.13;3.40;;;;;;;;;;5005562;28;21972;-84
2024/02/04 05:07:15;;;;;;;10.27;2.97;;;;;;;;;;5023286;28;20029;-85
2024/02/04 05:09:50;;;;;;;9.75;3.20;;;;;;;;;;4996518;28;20049;-84
2024/02/04 05:12:18;;;;;;;9.07;2.95;;;;;;;;;;5019062;28;20855;-85
2024/02/04 05:14:44;;;;;;;11.02;3.38;;;;;;;;;;4997569;28;20033;-85
2024/02/04 05:17:13;;;;;;;10.48;3.30;;;;;;;;;;5017018;28;20025;-84
2024/02/04 05:19:43;;;;;;;9.13;2.80;;;;;;;;;;4996894;28;20533;-85
2024/02/04 05:22:10;;;;;;;10.48;3.08;;;;;;;;;;4989118;28;20044;-84
2024/02/04 05:24:36;;;;;;;10.32;3.38;;;;;;;;;;5014021;28;20029;-83
2024/02/04 05:27:03;;;;;;;10.07;3.30;;;;;;;;;;5004608;28;20516;-83
2024/02/04 05:29:31;;;;;;;10.00;3.35;;;;;;;;;;5017958;28;20025;-84
2024/02/04 05:31:57;;;;;;;9.23;3.17;;;;;;;;;;5022227;28;20035;-84
2024/02/04 05:34:23;;;;;;;10.13;3.08;;;;;;;;;;5004462;28;20065;-84
2024/02/04 05:36:52;;;;;;;10.73;3.22;;;;;;;;;;5000900;28;20064;-83
2024/02/04 05:39:18;;;;;;;10.52;3.50;;;;;;;;;;4998466;28;20674;-83
2024/02/04 05:41:44;;;;;;;;;;;;;;;;;;5016375;28;20809;-84
2024/02/04 05:44:11;;;;;;;10.70;3.50;;;;;;;;;;5018775;28;19928;-83
2024/02/04 05:46:37;;;;;;;10.70;3.47;;;;;;;;;;5017180;28;20033;-83
2024/02/04 05:49:03;;;;;;;11.20;3.00;;;;;;;;;;4998007;28;20124;-83
2024/02/04 05:51:38;;;;;;;10.52;3.28;;;;;;;;;;5020484;28;20070;-83
2024/02/04 05:54:05;;;;;;;9.98;3.00;;;;;;;;;;5024916;28;20119;-83
2024/02/04 05:56:33;;;;;;;9.18;3.20;;;;;;;;;;5002254;28;20853;-83
2024/02/04 05:59:00;;;;;;;10.57;3.40;;;;;;;;;;5003657;28;20025;-84
2024/02/04 06:01:27;;;;;;;8.85;3.30;;;;;;;;;;4980052;28;21019;-85
2024/02/04 06:03:53;;;;;;;10.20;2.83;;;;;;;;;;5019894;28;20029;-84
2024/02/04 06:06:21;;;;;;;11.50;3.40;;;;;;;;;;4997047;28;20041;-85
2024/02/04 06:08:47;;;;;;;10.90;4.10;;;;;;;;;;5000233;28;20044;-83
2024/02/04 06:11:14;;;;;;;11.80;3.70;;;;;;;;;;5017142;28;20041;-84
2024/02/04 06:13:42;;;;;;;8.95;2.90;;;;;;;;;;5015784;28;20037;-84
2024/02/04 06:16:11;;;;;;;7.93;2.88;;;;;;;;;;5020537;28;20021;-84
2024/02/04 06:18:41;;;;;;;8.15;2.78;;;;;;;;;;4998142;28;20430;-83
2024/02/04 06:21:08;;;;;;;;;;;;;;;;;;4997830;28;20036;-84
2024/02/04 06:23:34;;;;;;;9.45;2.90;;;;;;;;;;5018956;28;20085;-83
2024/02/04 06:26:01;;;;;;;9.93;3.10;;;;;;;;;;5018714;28;20048;-83
2024/02/04 06:28:28;;;;;;;10.80;3.00;;;;;;;;;;5018911;28;20598;-83
2024/02/04 06:30:54;;;;;;;10.57;2.97;;;;;;;;;;5019298;28;20029;-83
2024/02/04 06:33:23;;;;;;;9.52;3.20;;;;;;;;;;5017040;28;20040;-84
2024/02/04 06:35:49;;;;;;;9.43;3.30;;;;;;;;;;4999588;28;20314;-83
2024/02/04 06:38:16;;;;;;;11.20;3.30;;;;;;;;;;4998413;28;20048;-84
2024/02/04 06:40:42;;;;;;;9.88;2.85;;;;;;;;;;5017040;28;20038;-83
2024/02/04 06:43:08;;;;;;;9.63;3.00;;;;;;;;;;4996877;28;20033;-84
2024/02/04 06:45:36;;;;;;;10.02;2.92;;;;;;;;;;5015481;28;20033;-83
2024/02/04 06:48:03;;;;;;;8.40;2.58;;;;;;;;;;5018436;28;20061;-84
2024/02/04 06:50:29;;;;;;;11.52;3.03;;;;;;;;;;4997434;28;20124;-84
2024/02/04 06:52:56;;;;;;;9.48;2.83;;;;;;;;;;5020777;28;20045;-83
2024/02/04 06:55:23;;;;;;;10.98;2.97;;;;;;;;;;5017945;28;20171;-83
2024/02/04 06:57:49;;;;;;;9.10;2.75;;;;;;;;;;5014872;28;20026;-85
2024/02/04 07:00:17;;;;;;;10.38;3.00;;;;;;;;;;4998497;28;20087;-84
2024/02/04 07:02:44;;;;;;;12.05;3.00;;;;;;;;;;4997604;28;20034;-84
2024/02/04 07:05:10;;;;;;;10.73;3.20;;;;;;;;;;5017314;28;20083;-84
2024/02/04 07:07:37;;;;;;;8.50;3.10;;;;;;;;;;4999031;28;20097;-85
2024/02/04 07:10:06;;;;;;;10.50;3.20;;;;;;;;;;5016435;28;20136;-84
2024/02/04 07:12:40;;;;;;;;;;;;;;;;;;5003262;28;20038;-84
2024/02/04 07:15:09;;;;;;;12.77;3.35;;;;;;;;;;5026249;28;20379;-84
2024/02/04 07:17:37;;;;;;;9.05;3.13;;;;;;;;;;4999163;28;20033;-84
2024/02/04 07:20:05;;;;;;;8.50;2.85;;;;;;;;;;5006126;28;20022;-86
2024/02/04 07:22:31;;;;;;;10.73;3.25;;;;;;;;;;5000643;28;20101;-84
2024/02/04 07:24:58;;;;;;;9.82;3.08;;;;;;;;;;5000470;28;20025;-83
2024/02/04 07:27:28;;;;;;;12.60;3.67;;;;;;;;;;5016875;28;20049;-84
2024/02/04 07:29:55;;;;;;;10.98;3.40;;;;;;;;;;5010526;28;20040;-87
2024/02/04 07:32:23;;;;;;;10.50;3.78;;;;;;;;;;4995843;28;20048;-85
2024/02/04 07:34:49;;;;;;;11.68;3.65;;;;;;;;;;5016622;28;20864;-85
2024/02/04 07:37:17;;;;;;;10.88;3.33;;;;;;;;;;5017015;28;20041;-84
2024/02/04 07:39:43;;;;;;;9.88;2.85;;;;;;;;;;5012713;28;20049;-85
2024/02/04 07:42:11;;;;;;;9.63;3.03;;;;;;;;;;5017050;28;20088;-83
2024/02/04 07:44:37;;;;;;;8.93;3.10;;;;;;;;;;5013952;28;20111;-85
2024/02/04 07:47:03;;;;;;;9.63;3.42;;;;;;;;;;4996552;28;20229;-86
2024/02/04 07:49:29;;;;;;;10.27;3.50;;;;;;;;;;5014394;28;20036;-84
2024/02/04 07:51:55;;;;;;;8.20;3.00;;;;;;;;;;5021646;28;20120;-83
2024/02/04 07:54:21;;;;;;;12.00;3.65;;;;;;;;;;4999482;28;21601;-84
2024/02/04 07:56:47;;;;;;;9.65;3.30;;;;;;;;;;5002926;28;20041;-82
2024/02/04 07:59:15;;;;;;;9.52;3.03;;;;;;;;;;5021342;28;20041;-84
2024/02/04 08:01:41;;;;;;;12.55;3.42;;;;;;;;;;5001401;28;20021;-83
2024/02/04 08:04:10;;;;;;;9.95;3.10;;;;;;;;;;5004163;28;20017;-83
2024/02/04 08:06:37;;;;;;;10.25;3.13;;;;;;;;;;5019537;28;20053;-82
2024/02/04 08:09:06;;;;;;;10.02;3.40;;;;;;;;;;5021959;28;20086;-83
2024/02/04 08:11:35;;;;;;;13.13;3.85;;;;;;;;;;5004628;28;20982;-85
2024/02/04 08:14:02;;;;;;;10.70;2.97;;;;;;;;;;5021794;28;20115;-84
2024/02/04 08:16:28;;;;;;;9.50;3.33;;;;;;;;;;5000273;28;20065;-86
2024/02/04 08:18:54;;;;;;;10.13;3.70;;;;;;;;;;5006581;28;20022;-83
2024/02/04 08:21:20;;;;;;;11.57;3.33;;;;;;;;;;5020449;28;20722;-83
2024/02/04 08:23:46;;;;;;;9.77;3.38;;;;;;;;;;5005039;28;20033;-86
2024/02/04 08:26:15;;;;;;;10.60;3.72;;;;;;;;;;5001113;28;20710;-85
2024/02/04 08:28:42;;;;;;;10.75;3.70;;;;;;;;;;5017048;28;20076;-85
2024/02/04 08:31:08;;;;;;;10.63;3.47;;;;;;;;;;4989257;28;20038;-83
2024/02/04 08:33:36;;;;;;;11.13;3.33;;;;;;;;;;5026728;28;20064;-85
2024/02/04 08:36:02;;;;;;;11.82;3.45;;;;;;;;;;5023993;28;20476;-84
2024/02/04 08:38:29;;;;;;;11.13;3.25;;;;;;;;;;5028457;28;20116;-84
2024/02/04 08:40:56;;;;;;;11.27;3.42;;;;;;;;;;5014885;28;20084;-84
2024/02/04 08:43:22;;;;;;;8.30;3.10;;;;;;;;;;5000359;28;20569;-84
2024/02/04 08:45:48;;;;;;;11.48;3.22;;;;;;;;;;5014112;28;20030;-84
2024/02/04 08:48:14;;;;;;;12.75;3.58;;;;;;;;;;5000979;28;20037;-84
2024/02/04 08:50:41;;;;;;;12.27;3.50;;;;;;;;;;5003863;28;20190;-84
2024/02/04 08:53:07;;;;;;;9.50;3.55;;;;;;;;;;5019362;28;20468;-84
2024/02/04 08:55:35;;;;;;;9.98;3.72;;;;;;;;;;5017660;28;20083;-84
2024/02/04 08:58:01;;;;;;;11.48;3.63;;;;;;;;;;5009273;28;20025;-85
2024/02/04 09:00:27;;;;;;;11.65;3.53;;;;;;;;;;5021360;28;20025;-84
2024/02/04 09:02:58;;;;;;;12.32;3.80;;;;;;;;;;5003004;28;20029;-84
2024/02/04 09:05:25;;;;;;;11.02;3.92;;;;;;;;;;5002704;28;20485;-85
2024/02/04 09:07:55;;;;;;;10.73;4.55;;;;;;;;;;5020463;28;20079;-87
2024/02/04 09:10:21;;;;;;;15.45;7.03;;;;;;;;;;5009473;28;20041;-87
2024/02/04 09:12:47;;;;;;;15.75;8.25;;;;;;;;;;5000427;28;20022;-85
2024/02/04 09:15:13;;;;;;;;;;;;;;;;;;5002475;28;20025;-85
2024/02/04 09:17:40;;;;;;;14.13;6.70;;;;;;;;;;5022291;28;19916;-86
2024/02/04 09:20:08;;;;;;;15.60;6.78;;;;;;;;;;5002840;28;20032;-85
2024/02/04 09:22:35;;;;;;;10.77;4.97;;;;;;;;;;5009921;28;20723;-85
2024/02/04 09:25:03;;;;;;;13.57;3.83;;;;;;;;;;4994280;28;20026;-85
2024/02/04 09:27:29;;;;;;;10.00;3.28;;;;;;;;;;5010064;28;20114;-84
2024/02/04 09:29:58;;;;;;;;;;;;;;;;;;5013678;28;20124;-84
2024/02/04 09:32:25;;;;;;;12.07;3.15;;;;;;;;;;5010738;28;19909;-85
2024/02/04 09:34:52;;;;;;;10.15;2.67;;;;;;;;;;4999996;28;20033;-85
2024/02/04 09:37:18;;;;;;;9.73;2.72;;;;;;;;;;5010208;28;20124;-84
2024/02/04 09:39:45;;;;;;;9.57;2.50;;;;;;;;;;4993579;28;20630;-84
2024/02/04 09:42:23;;;;;;;9.13;2.70;;;;;;;;;;5011229;28;20041;-84
2024/02/04 09:44:49;;;;;;;10.05;3.00;;;;;;;;;;4991977;28;20041;-84
2024/02/04 09:47:16;;;;;;;10.85;3.20;;;;;;;;;;4993700;28;20513;-85
2024/02/04 09:49:42;;;;;;;12.10;3.22;;;;;;;;;;4992983;28;20045;-86
2024/02/04 09:52:10;;;;;;;9.40;2.58;;;;;;;;;;5009375;28;20093;-85
2024/02/04 09:54:42;;;;;;;8.45;2.80;;;;;;;;;;5012482;28;20668;-85
2024/02/04 09:57:10;;;;;;;10.90;3.20;;;;;;;;;;4996784;28;20037;-85
2024/02/04 09:59:37;;;;;;;11.90;3.50;;;;;;;;;;4995520;28;20772;-85
2024/02/04 10:02:06;;;;;;;8.45;2.88;;;;;;;;;;4997328;28;20053;-86
2024/02/04 10:04:33;;;;;;;9.90;2.90;;;;;;;;;;4993106;28;20029;-86
2024/02/04 10:07:02;;;;;;;8.40;2.78;;;;;;;;;;5013207;28;20199;-85
2024/02/04 10:09:30;;;;;;;8.32;2.60;;;;;;;;;;5012305;28;20123;-86
2024/02/04 10:11:56;;;;;;;9.90;2.55;;;;;;;;;;5014354;28;20041;-85
2024/02/04 10:14:24;;;;;;;10.63;3.15;;;;;;;;;;4994144;28;20540;-83
2024/02/04 10:16:50;;;;;;;10.25;3.08;;;;;;;;;;5012127;28;20041;-83
2024/02/04 10:19:16;;;;;;;10.13;3.22;;;;;;;;;;4989365;28;20033;-84
2024/02/04 10:21:43;;;;;;;10.25;3.70;;;;;;;;;;5009254;28;20072;-84
2024/02/04 10:24:14;;;;;;;9.98;3.50;;;;;;;;;;5012596;28;20022;-84
2024/02/04 10:26:43;;;;;;;12.98;3.95;;;;;;;;;;5007964;28;20083;-83
2024/02/04 10:29:10;;;;;;;10.93;3.22;;;;;;;;;;4991873;28;20228;-85
2024/02/04 10:31:37;;;;;;;9.13;3.17;;;;;;;;;;5012775;28;20210;-85
2024/02/04 10:34:03;;;;;;;10.02;3.50;;;;;;;;;;5011627;28;20052;-84
2024/02/04 10:36:32;;;;;;;11.68;3.88;;;;;;;;;;4994905;28;20125;-84
2024/02/04 10:38:58;;;;;;;10.65;3.60;;;;;;;;;;5007074;28;20052;-85
2024/02/04 10:41:25;;;;;;;9.57;3.20;;;;;;;;;;4997185;28;20045;-85
2024/02/04 10:43:54;;;;;;;10.10;3.80;;;;;;;;;;5011726;28;20026;-85
2024/02/04 10:46:21;;;;;;;9.82;3.85;;;;;;;;;;5012022;28;20200;-85
2024/02/04 10:49:06;;;;;;;9.80;3.92;;;;;;;;;;4989760;28;20120;-85
2024/02/04 10:51:35;;;;;;;10.35;4.03;;;;;;;;;;5006323;28;20683;-84
2024/02/04 10:54:03;;;;;;;10.70;4.40;;;;;;;;;;4972131;28;20033;-83
2024/02/04 10:56:43;;;;;;;10.05;4.18;;;;;;;;;;5003663;28;20037;-85
2024/02/04 10:59:11;;;;;;;12.50;4.78;;;;;;;;;;4990816;28;20060;-84
2024/02/04 11:01:44;;;;;;;11.02;4.45;;;;;;;;;;4992918;28;20072;-85
2024/02/04 11:04:13;;;;;;;12.82;4.82;;;;;;;;;;5007520;28;20022;-85
2024/02/04 11:06:42;;;;;;;11.15;4.60;;;;;;;;;;4993224;28;20033;-83
2024/02/04 11:09:12;;;;;;;12.80;5.00;;;;;;;;;;4990827;28;20049;-82
2024/02/04 11:11:40;;;;;;;10.10;4.22;;;;;;;;;;4991186;28;20064;-83
2024/02/04 11:14:09;;;;;;;11.18;3.58;;;;;;;;;;5009329;28;20021;-83
2024/02/04 11:16:45;;;;;;;9.50;3.88;;;;;;;;;;4996994;28;20040;-84
2024/02/04 11:19:30;;;;;;;11.40;4.20;;;;;;;;;;4996918;28;20038;-83
2024/02/04 11:22:17;;;;;;;10.40;3.70;;;;;;;;;;5018641;28;20052;-84
2024/02/04 11:24:53;;;;;;;11.02;3.63;;;;;;;;;;5024140;28;20037;-84
2024/02/04 11:27:19;;;;;;;;;;;;;;;;;;5025699;28;20748;-83
2024/02/04 11:29:49;;;;;;;10.90;4.10;;;;;;;;;;5021988;28;20036;-83
2024/02/04 11:32:15;;;;;;;13.60;4.40;;;;;;;;;;5010344;28;20110;-84
2024/02/04 11:34:42;;;;;;;8.82;3.30;;;;;;;;;;5021676;28;20540;-82
2024/02/04 11:37:20;;;;;;;11.00;3.55;;;;;;;;;;5019401;28;20037;-83
2024/02/04 11:39:55;;;;;;;11.15;3.63;;;;;;;;;;5022042;28;20049;-82
2024/02/04 11:42:25;;;;;;;9.27;2.97;;;;;;;;;;5006557;28;20045;-82
2024/02/04 11:45:08;;;;;;;9.75;3.20;;;;;;;;;;5028407;28;20103;-82
2024/02/04 11:47:38;;;;;;;9.77;3.05;;;;;;;;;;5026922;28;20034;-83
2024/02/04 11:50:10;;;;;;;9.05;3.03;;;;;;;;;;5029074;28;20029;-84
2024/02/04 11:52:36;;;;;;;9.88;3.42;;;;;;;;;;5029285;28;20041;-84
2024/02/04 11:55:09;;;;;;;11.10;3.00;;;;;;;;;;5014198;28;20359;-83
2024/02/04 11:57:39;;;;;;;9.38;3.08;;;;;;;;;;5024416;28;20037;-84
2024/02/04 12:00:10;;;;;;;7.85;3.05;;;;;;;;;;5012197;28;20030;-83
2024/02/04 12:02:38;;;;;;;11.32;3.90;;;;;;;;;;5029606;28;20041;-84
2024/02/04 12:05:06;;;;;;;9.02;3.22;;;;;;;;;;5014619;28;20534;-84
2024/02/04 12:07:33;;;;;;;9.85;3.67;;;;;;;;;;5025466;28;20022;-85
2024/02/04 12:10:01;;;;;;;10.40;3.72;;;;;;;;;;5022083;28;20125;-83
2024/02/04 12:12:27;;;;;;;10.52;3.55;;;;;;;;;;5019405;28;20029;-83
2024/02/04 12:14:54;;;;;;;9.45;3.17;;;;;;;;;;5005345;28;20111;-83
2024/02/04 12:17:21;;;;;;;8.82;3.03;;;;;;;;;;5000190;28;20037;-82
2024/02/04 12:19:50;;;;;;;10.02;3.13;;;;;;;;;;5020202;28;20036;-84
2024/02/04 12:22:16;;;;;;;9.35;3.10;;;;;;;;;;5002756;28;20045;-82
2024/02/04 12:24:43;;;;;;;9.13;2.83;;;;;;;;;;5017846;28;20056;-84
2024/02/04 12:27:11;;;;;;;8.90;3.35;;;;;;;;;;5015453;28;20065;-82
2024/02/04 12:29:39;;;;;;;9.10;3.00;;;;;;;;;;5016720;28;20049;-83
2024/02/04 12:32:07;;;;;;;8.90;3.00;;;;;;;;;;5015780;28;20117;-83
2024/02/04 12:34:36;;;;;;;9.85;3.17;;;;;;;;;;5001860;28;20494;-83
2024/02/04 12:37:03;;;;;;;13.90;4.75;;;;;;;;;;5016849;28;20021;-83
2024/02/04 12:39:33;;;;;;;9.88;2.83;;;;;;;;;;5016023;28;20038;-83
2024/02/04 12:42:01;;;;;;;9.13;2.90;;;;;;;;;;5001514;28;20026;-83
2024/02/04 12:44:27;;;;;;;10.88;3.28;;;;;;;;;;5013185;28;20045;-81
2024/02/04 12:46:53;;;;;;;11.85;3.47;;;;;;;;;;5015434;28;20033;-82
2024/02/04 12:49:22;;;;;;;9.35;2.80;;;;;;;;;;5001290;28;20045;-84
2024/02/04 12:52:07;;;;;;;8.80;2.70;;;;;;;;;;5023873;28;20131;-83
2024/02/04 12:54:45;;;;;;;10.40;3.10;;;;;;;;;;5016360;28;20117;-85
2024/02/04 12:57:23;;;;;;;9.65;2.65;;;;;;;;;;5005388;28;20474;-82
2024/02/04 12:59:49;;;;;;;8.90;2.50;;;;;;;;;;5014226;28;20157;-83
2024/02/04 13:02:15;;;;;;;10.63;2.50;;;;;;;;;;5016654;28;20053;-83
2024/02/04 13:04:43;;;;;;;8.15;2.83;;;;;;;;;;5010500;28;20173;-82
2024/02/04 13:07:09;;;;;;;8.75;2.97;;;;;;;;;;5000490;28;20057;-82
2024/02/04 13:09:36;;;;;;;9.95;2.58;;;;;;;;;;5013790;28;20482;-83
2024/02/04 13:12:10;;;;;;;9.30;2.58;;;;;;;;;;5014191;28;20029;-82
2024/02/04 13:14:39;;;;;;;9.52;3.00;;;;;;;;;;4998229;28;20041;-83
2024/02/04 13:17:06;;;;;;;12.07;3.47;;;;;;;;;;4983852;28;20038;-83
2024/02/04 13:19:34;;;;;;;9.60;3.28;;;;;;;;;;5012935;28;20072;-82
2024/02/04 13:22:02;;;;;;;11.57;3.28;;;;;;;;;;5015612;28;20021;-83
2024/02/04 13:24:28;;;;;;;9.88;3.30;;;;;;;;;;5009908;28;20462;-83
2024/02/04 13:26:56;;;;;;;10.82;3.03;;;;;;;;;;4997534;28;20148;-82
2024/02/04 13:29:24;;;;;;;9.52;2.90;;;;;;;;;;5010083;28;20819;-82
2024/02/04 13:31:53;;;;;;;8.98;3.00;;;;;;;;;;5010066;28;20045;-82
2024/02/04 13:34:22;;;;;;;8.45;2.97;;;;;;;;;;5013800;28;20041;-82
2024/02/04 13:36:50;;;;;;;11.18;2.50;;;;;;;;;;5007770;28;20041;-82
2024/02/04 13:39:17;;;;;;;8.02;2.60;;;;;;;;;;5010182;28;20898;-83
2024/02/04 13:41:45;;;;;;;9.77;2.80;;;;;;;;;;5008872;28;20056;-82
2024/02/04 13:44:12;;;;;;;9.52;2.28;;;;;;;;;;5018147;28;20037;-84
2024/02/04 13:46:42;;;;;;;8.38;2.53;;;;;;;;;;5019223;28;20030;-82
2024/02/04 13:49:11;;;;;;;7.88;2.53;;;;;;;;;;5024863;28;20037;-82
2024/02/04 13:51:39;;;;;;;10.85;3.08;;;;;;;;;;5008364;28;20040;-82
2024/02/04 13:54:06;;;;;;;10.43;2.88;;;;;;;;;;5008138;28;20048;-83
2024/02/04 13:56:33;;;;;;;7.95;2.35;;;;;;;;;;4995056;28;20048;-81
2024/02/04 13:59:02;;;;;;;9.55;2.50;;;;;;;;;;5010048;28;20606;-82
2024/02/04 14:01:28;;;;;;;8.93;2.70;;;;;;;;;;5009020;28;20100;-81
2024/02/04 14:03:54;;;;;;;8.60;2.90;;;;;;;;;;5012089;28;20029;-81
2024/02/04 14:06:20;;;;;;;11.45;2.72;;;;;;;;;;5009180;28;20048;-82
2024/02/04 14:08:48;;;;;;;10.15;3.20;;;;;;;;;;5007519;28;20095;-81
2024/02/04 14:11:14;;;;;;;8.23;2.65;;;;;;;;;;4999547;28;20121;-83
2024/02/04 14:13:41;;;;;;;8.75;2.60;;;;;;;;;;4990469;28;20049;-83
2024/02/04 14:16:09;;;;;;;9.35;2.58;;;;;;;;;;5015361;28;20072;-81
2024/02/04 14:18:36;;;;;;;9.40;2.80;;;;;;;;;;5016151;28;20033;-83
2024/02/04 14:21:06;;;;;;;10.10;3.17;;;;;;;;;;4992831;28;20044;-83
2024/02/04 14:23:35;;;;;;;9.25;3.00;;;;;;;;;;4988474;28;20017;-83
2024/02/04 14:26:02;;;;;;;8.35;2.45;;;;;;;;;;5016312;28;20654;-84
2024/02/04 14:28:28;;;;;;;10.48;2.72;;;;;;;;;;5012994;28;20060;-84
2024/02/04 14:30:54;;;;;;;9.50;2.42;;;;;;;;;;5003347;28;20033;-84
2024/02/04 14:33:21;;;;;;;8.23;2.65;;;;;;;;;;5024482;28;20029;-85
2024/02/04 14:35:47;;;;;;;9.43;3.20;;;;;;;;;;5029696;28;20033;-82
2024/02/04 14:38:19;;;;;;;9.55;2.45;;;;;;;;;;5019719;28;20029;-83
2024/02/04 14:40:48;;;;;;;7.93;2.40;;;;;;;;;;5019819;28;20033;-84
2024/02/04 14:43:15;;;;;;;7.78;2.05;;;;;;;;;;5013612;28;20036;-83